sensor_id;sensor_type;location;lat;lon;timestamp;pressure;altitude;pressure_sealevel;temperature;humidity
55070;BME280;40967;52.070;8.596;2023-02-18T00:00:52;100998.06;;;7.30;89.96
55070;BME280;40967;52.070;8.596;2023-02-18T00:03:17;100993.41;;;7.25;90.53
55070;BME280;40967;52.070;8.596;2023-02-18T00:05:43;100972.88;;;7.13;91.02
55070;BME280;40967;52.070;8.596;2023-02-18T00:08:08;100978.50;;;7.11;91.92
55070;BME280;40967;52.070;8.596;2023-02-18T00:10:34;100986.25;;;7.19;92.58
55070;BME280;40967;52.070;8.596;2023-02-18T00:12:59;100995.75;;;7.22;93.58
55070;BME280;40967;52.070;8.596;2023-02-18T00:15:26;100988.63;;;7.16;94.39
55070;BME280;40967;52.070;8.596;2023-02-18T00:17:51;100991.19;;;7.22;94.94
55070;BME280;40967;52.070;8.596;2023-02-18T00:20:16;100995.28;;;7.25;95.65
55070;BME280;40967;52.070;8.596;2023-02-18T00:22:42;100982.16;;;7.17;96.86
55070;BME280;40967;52.070;8.596;2023-02-18T00:25:07;100987.19;;;7.25;97.79
55070;BME280;40967;52.070;8.596;2023-02-18T00:27:33;100979.06;;;7.25;98.76
55070;BME280;40967;52.070;8.596;2023-02-18T00:30:02;100972.28;;;7.22;99.45
55070;BME280;40967;52.070;8.596;2023-02-18T00:32:28;100976.97;;;7.27;100.00
55070;BME280;40967;52.070;8.596;2023-02-18T00:34:53;100961.50;;;7.22;100.00
55070;BME280;40967;52.070;8.596;2023-02-18T00:37:19;100977.31;;;7.30;100.00
55070;BME280;40967;52.070;8.596;2023-02-18T00:39:44;100967.00;;;7.27;100.00
55070;BME280;40967;52.070;8.596;2023-02-18T00:42:10;100972.50;;;7.32;100.00
55070;BME280;40967;52.070;8.596;2023-02-18T00:44:35;100978.84;;;7.38;100.00
55070;BME280;40967;52.070;8.596;2023-02-18T00:47:00;100971.44;;;7.33;100.00
55070;BME280;40967;52.070;8.596;2023-02-18T00:49:26;100985.41;;;7.42;100.00
55070;BME280;40967;52.070;8.596;2023-02-18T00:51:51;100978.94;;;7.43;100.00
55070;BME280;40967;52.070;8.596;2023-02-18T00:54:17;100964.03;;;7.40;100.00
55070;BME280;40967;52.070;8.596;2023-02-18T00:56:42;100967.31;;;7.42;100.00
55070;BME280;40967;52.070;8.596;2023-02-18T00:59:08;100981.16;;;7.46;100.00
55070;BME280;40967;52.070;8.596;2023-02-18T01:01:33;100981.38;;;7.56;100.00
55070;BME280;40967;52.070;8.596;2023-02-18T01:03:59;100983.38;;;7.60;100.00
55070;BME280;40967;52.070;8.596;2023-02-18T01:06:25;100980.44;;;7.62;100.00
55070;BME280;40967;52.070;8.596;2023-02-18T01:08:50;100973.97;;;7.63;100.00
55070;BME280;40967;52.070;8.596;2023-02-18T01:11:15;100981.94;;;7.69;100.00
55070;BME280;40967;52.070;8.596;2023-02-18T01:13:41;100979.59;;;7.73;100.00
55070;BME280;40967;52.070;8.596;2023-02-18T01:16:07;100978.03;;;7.77;100.00
55070;BME280;40967;52.070;8.596;2023-02-18T01:18:32;100979.44;;;7.79;100.00
55070;BME280;40967;52.070;8.596;2023-02-18T01:20:58;100964.53;;;7.77;100.00
55070;BME280;40967;52.070;8.596;2023-02-18T01:23:24;100955.63;;;7.76;100.00
55070;BME280;40967;52.070;8.596;2023-02-18T01:25:49;100953.81;;;7.82;100.00
55070;BME280;40967;52.070;8.596;2023-02-18T01:28:15;100963.19;;;7.91;100.00
55070;BME280;40967;52.070;8.596;2023-02-18T01:30:41;100955.66;;;7.93;100.00
55070;BME280;40967;52.070;8.596;2023-02-18T01:33:07;100949.44;;;7.92;100.00
55070;BME280;40967;52.070;8.596;2023-02-18T01:35:33;100954.81;;;7.92;100.00
55070;BME280;40967;52.070;8.596;2023-02-18T01:37:59;100961.66;;;7.95;100.00
55070;BME280;40967;52.070;8.596;2023-02-18T01:40:26;100956.59;;;7.98;100.00
55070;BME280;40967;52.070;8.596;2023-02-18T01:42:52;100952.56;;;8.01;100.00
55070;BME280;40967;52.070;8.596;2023-02-18T01:48:01;100937.19;;;8.01;100.00
55070;BME280;40967;52.070;8.596;2023-02-18T01:50:29;100921.78;;;8.02;100.00
55070;BME280;40967;52.070;8.596;2023-02-18T01:52:55;100944.41;;;8.13;100.00
55070;BME280;40967;52.070;8.596;2023-02-18T01:55:22;100929.03;;;8.13;100.00
55070;BME280;40967;52.070;8.596;2023-02-18T01:57:47;100915.81;;;8.17;100.00
55070;BME280;40967;52.070;8.596;2023-02-18T02:00:16;100911.72;;;8.14;100.00
55070;BME280;40967;52.070;8.596;2023-02-18T02:02:44;100904.59;;;8.08;100.00
55070;BME280;40967;52.070;8.596;2023-02-18T02:05:11;100916.72;;;8.22;100.00
55070;BME280;40967;52.070;8.596;2023-02-18T02:07:38;100914.63;;;8.24;100.00
55070;BME280;40967;52.070;8.596;2023-02-18T02:10:06;100904.66;;;8.25;100.00
55070;BME280;40967;52.070;8.596;2023-02-18T02:12:46;100916.63;;;8.29;100.00
55070;BME280;40967;52.070;8.596;2023-02-18T02:35:24;100859.59;;;8.47;100.00
55070;BME280;40967;52.070;8.596;2023-02-18T02:38:05;100839.81;;;8.46;100.00
55070;BME280;40967;52.070;8.596;2023-02-18T02:43:50;100837.28;;;8.56;100.00
55070;BME280;40967;52.070;8.596;2023-02-18T02:46:42;100849.56;;;8.64;100.00
55070;BME280;40967;52.070;8.596;2023-02-18T02:51:51;100838.91;;;8.57;100.00
55070;BME280;40967;52.070;8.596;2023-02-18T02:54:26;100846.59;;;8.65;100.00
55070;BME280;40967;52.070;8.596;2023-02-18T02:57:40;100828.44;;;8.61;100.00
55070;BME280;40967;52.070;8.596;2023-02-18T03:00:06;100837.25;;;8.73;100.00
55070;BME280;40967;52.070;8.596;2023-02-18T03:03:05;100822.81;;;8.67;100.00
55070;BME280;40967;52.070;8.596;2023-02-18T03:11:08;100831.66;;;8.79;100.00
55070;BME280;40967;52.070;8.596;2023-02-18T03:13:47;100822.47;;;8.80;100.00
55070;BME280;40967;52.070;8.596;2023-02-18T03:21:38;100801.72;;;8.86;100.00
55070;BME280;40967;52.070;8.596;2023-02-18T03:24:31;100803.09;;;8.88;100.00
55070;BME280;40967;52.070;8.596;2023-02-18T03:26:58;100798.50;;;8.89;100.00
55070;BME280;40967;52.070;8.596;2023-02-18T03:29:26;100793.34;;;8.87;100.00
55070;BME280;40967;52.070;8.596;2023-02-18T03:31:56;100781.44;;;8.88;100.00
55070;BME280;40967;52.070;8.596;2023-02-18T03:34:28;100781.81;;;8.97;100.00
55070;BME280;40967;52.070;8.596;2023-02-18T03:36:55;100783.97;;;8.95;100.00
55070;BME280;40967;52.070;8.596;2023-02-18T03:39:24;100785.34;;;8.97;100.00
55070;BME280;40967;52.070;8.596;2023-02-18T03:41:50;100779.38;;;8.95;100.00
55070;BME280;40967;52.070;8.596;2023-02-18T03:44:15;100785.09;;;8.99;100.00
55070;BME280;40967;52.070;8.596;2023-02-18T03:46:42;100763.75;;;9.02;100.00
55070;BME280;40967;52.070;8.596;2023-02-18T03:49:10;100763.50;;;9.04;100.00
55070;BME280;40967;52.070;8.596;2023-02-18T03:51:36;100756.72;;;9.01;100.00
55070;BME280;40967;52.070;8.596;2023-02-18T03:54:01;100754.81;;;9.02;100.00
55070;BME280;40967;52.070;8.596;2023-02-18T03:56:27;100749.41;;;9.02;100.00
55070;BME280;40967;52.070;8.596;2023-02-18T03:58:52;100746.38;;;8.98;100.00
55070;BME280;40967;52.070;8.596;2023-02-18T04:01:17;100743.19;;;9.01;100.00
55070;BME280;40967;52.070;8.596;2023-02-18T04:03:43;100733.41;;;9.00;100.00
55070;BME280;40967;52.070;8.596;2023-02-18T04:06:08;100733.72;;;9.04;100.00
55070;BME280;40967;52.070;8.596;2023-02-18T04:08:34;100723.41;;;9.01;100.00
55070;BME280;40967;52.070;8.596;2023-02-18T04:11:00;100728.56;;;9.02;100.00
55070;BME280;40967;52.070;8.596;2023-02-18T04:13:26;100725.63;;;9.04;100.00
55070;BME280;40967;52.070;8.596;2023-02-18T04:15:51;100731.34;;;9.07;100.00
55070;BME280;40967;52.070;8.596;2023-02-18T04:18:17;100731.38;;;9.12;100.00
55070;BME280;40967;52.070;8.596;2023-02-18T04:20:43;100716.19;;;9.06;100.00
55070;BME280;40967;52.070;8.596;2023-02-18T04:23:10;100724.34;;;9.11;100.00
55070;BME280;40967;52.070;8.596;2023-02-18T04:25:36;100704.22;;;9.02;100.00
55070;BME280;40967;52.070;8.596;2023-02-18T04:28:02;100705.16;;;9.13;100.00
55070;BME280;40967;52.070;8.596;2023-02-18T04:30:28;100701.63;;;9.12;100.00
55070;BME280;40967;52.070;8.596;2023-02-18T04:32:53;100707.06;;;9.17;100.00
55070;BME280;40967;52.070;8.596;2023-02-18T04:35:18;100710.59;;;9.18;100.00
55070;BME280;40967;52.070;8.596;2023-02-18T04:37:44;100698.94;;;9.17;100.00
55070;BME280;40967;52.070;8.596;2023-02-18T04:40:09;100689.22;;;9.16;100.00
55070;BME280;40967;52.070;8.596;2023-02-18T04:42:35;100686.50;;;9.16;100.00
55070;BME280;40967;52.070;8.596;2023-02-18T04:45:00;100698.78;;;9.24;100.00
55070;BME280;40967;52.070;8.596;2023-02-18T04:47:26;100686.03;;;9.25;100.00
55070;BME280;40967;52.070;8.596;2023-02-18T04:49:51;100681.69;;;9.24;100.00
55070;BME280;40967;52.070;8.596;2023-02-18T04:52:17;100681.19;;;9.27;100.00
55070;BME280;40967;52.070;8.596;2023-02-18T04:54:43;100680.44;;;9.31;100.00
55070;BME280;40967;52.070;8.596;2023-02-18T04:57:08;100665.22;;;9.30;100.00
55070;BME280;40967;52.070;8.596;2023-02-18T04:59:33;100656.25;;;9.25;100.00
55070;BME280;40967;52.070;8.596;2023-02-18T05:01:59;100658.19;;;9.29;100.00
55070;BME280;40967;52.070;8.596;2023-02-18T05:04:24;100653.59;;;9.30;100.00
55070;BME280;40967;52.070;8.596;2023-02-18T05:06:50;100653.13;;;9.38;100.00
55070;BME280;40967;52.070;8.596;2023-02-18T05:09:15;100644.41;;;9.31;100.00
55070;BME280;40967;52.070;8.596;2023-02-18T05:11:41;100641.16;;;9.34;100.00
55070;BME280;40967;52.070;8.596;2023-02-18T05:14:07;100656.97;;;9.42;100.00
55070;BME280;40967;52.070;8.596;2023-02-18T05:16:33;100648.84;;;9.42;100.00
55070;BME280;40967;52.070;8.596;2023-02-18T05:18:58;100646.94;;;9.42;100.00
55070;BME280;40967;52.070;8.596;2023-02-18T05:21:24;100634.78;;;9.45;100.00
55070;BME280;40967;52.070;8.596;2023-02-18T05:23:49;100632.81;;;9.40;100.00
55070;BME280;40967;52.070;8.596;2023-02-18T05:26:14;100624.16;;;9.38;100.00
55070;BME280;40967;52.070;8.596;2023-02-18T05:28:40;100630.97;;;9.46;100.00
55070;BME280;40967;52.070;8.596;2023-02-18T05:31:05;100625.03;;;9.49;100.00
55070;BME280;40967;52.070;8.596;2023-02-18T05:33:31;100619.38;;;9.50;100.00
55070;BME280;40967;52.070;8.596;2023-02-18T05:35:56;100621.25;;;9.50;100.00
55070;BME280;40967;52.070;8.596;2023-02-18T05:38:22;100609.59;;;9.49;100.00
55070;BME280;40967;52.070;8.596;2023-02-18T05:40:47;100602.00;;;9.46;100.00
55070;BME280;40967;52.070;8.596;2023-02-18T05:43:13;100600.41;;;9.50;100.00
55070;BME280;40967;52.070;8.596;2023-02-18T05:45:39;100592.53;;;9.49;100.00
55070;BME280;40967;52.070;8.596;2023-02-18T05:48:04;100585.78;;;9.51;100.00
55070;BME280;40967;52.070;8.596;2023-02-18T05:50:30;100557.25;;;9.39;100.00
55070;BME280;40967;52.070;8.596;2023-02-18T05:52:55;100574.44;;;9.54;100.00
55070;BME280;40967;52.070;8.596;2023-02-18T05:55:21;100575.22;;;9.50;100.00
55070;BME280;40967;52.070;8.596;2023-02-18T05:57:47;100570.09;;;9.53;100.00
55070;BME280;40967;52.070;8.596;2023-02-18T06:00:22;100561.13;;;9.48;100.00
55070;BME280;40967;52.070;8.596;2023-02-18T06:02:54;100555.16;;;9.46;100.00
55070;BME280;40967;52.070;8.596;2023-02-18T06:11:28;100546.00;;;9.57;100.00
55070;BME280;40967;52.070;8.596;2023-02-18T06:14:04;100544.94;;;9.63;100.00
55070;BME280;40967;52.070;8.596;2023-02-18T06:17:17;100527.53;;;9.49;100.00
55070;BME280;40967;52.070;8.596;2023-02-18T06:19:29;100454.97;;;9.04;100.00
55070;BME280;40967;52.070;8.596;2023-02-18T06:22:26;100540.06;;;9.60;100.00
55070;BME280;40967;52.070;8.596;2023-02-18T06:25:15;100541.72;;;9.61;100.00
55070;BME280;40967;52.070;8.596;2023-02-18T06:27:56;100504.50;;;9.41;100.00
55070;BME280;40967;52.070;8.596;2023-02-18T06:30:22;100527.63;;;9.59;100.00
55070;BME280;40967;52.070;8.596;2023-02-18T06:32:50;100532.50;;;9.62;100.00
55070;BME280;40967;52.070;8.596;2023-02-18T06:35:16;100517.56;;;9.59;100.00
55070;BME280;40967;52.070;8.596;2023-02-18T06:37:41;100514.34;;;9.62;100.00
55070;BME280;40967;52.070;8.596;2023-02-18T06:42:45;100509.75;;;9.68;100.00
55070;BME280;40967;52.070;8.596;2023-02-18T06:45:10;100514.91;;;9.64;100.00
55070;BME280;40967;52.070;8.596;2023-02-18T06:47:36;100519.50;;;9.64;100.00
55070;BME280;40967;52.070;8.596;2023-02-18T06:50:02;100495.09;;;9.54;100.00
55070;BME280;40967;52.070;8.596;2023-02-18T06:52:29;100506.78;;;9.64;100.00
55070;BME280;40967;52.070;8.596;2023-02-18T06:54:55;100499.16;;;9.61;100.00
55070;BME280;40967;52.070;8.596;2023-02-18T06:57:23;100502.72;;;9.67;100.00
55070;BME280;40967;52.070;8.596;2023-02-18T06:59:49;100502.16;;;9.65;100.00
55070;BME280;40967;52.070;8.596;2023-02-18T07:02:14;100483.75;;;9.62;100.00
55070;BME280;40967;52.070;8.596;2023-02-18T07:04:39;100484.84;;;9.66;100.00
55070;BME280;40967;52.070;8.596;2023-02-18T07:07:05;100478.06;;;9.63;100.00
55070;BME280;40967;52.070;8.596;2023-02-18T07:09:31;100498.66;;;9.64;100.00
55070;BME280;40967;52.070;8.596;2023-02-18T07:11:57;100481.28;;;9.55;100.00
55070;BME280;40967;52.070;8.596;2023-02-18T07:14:23;100482.13;;;9.61;100.00
55070;BME280;40967;52.070;8.596;2023-02-18T07:16:49;100488.63;;;9.65;100.00
55070;BME280;40967;52.070;8.596;2023-02-18T07:19:28;100485.38;;;9.68;100.00
55070;BME280;40967;52.070;8.596;2023-02-18T07:21:56;100471.00;;;9.57;100.00
55070;BME280;40967;52.070;8.596;2023-02-18T07:24:25;100483.19;;;9.65;100.00
55070;BME280;40967;52.070;8.596;2023-02-18T07:26:51;100464.50;;;9.58;100.00
55070;BME280;40967;52.070;8.596;2023-02-18T07:29:20;100493.50;;;9.68;100.00
55070;BME280;40967;52.070;8.596;2023-02-18T07:31:46;100488.09;;;9.68;100.00
55070;BME280;40967;52.070;8.596;2023-02-18T07:34:11;100482.16;;;9.66;100.00
55070;BME280;40967;52.070;8.596;2023-02-18T07:36:36;100496.22;;;9.68;100.00
55070;BME280;40967;52.070;8.596;2023-02-18T07:39:02;100460.41;;;9.56;100.00
55070;BME280;40967;52.070;8.596;2023-02-18T07:41:29;100480.22;;;9.66;100.00
55070;BME280;40967;52.070;8.596;2023-02-18T07:43:55;100481.03;;;9.62;100.00
55070;BME280;40967;52.070;8.596;2023-02-18T07:46:21;100431.09;;;9.38;100.00
55070;BME280;40967;52.070;8.596;2023-02-18T07:48:46;100484.31;;;9.69;100.00
55070;BME280;40967;52.070;8.596;2023-02-18T07:51:12;100472.38;;;9.65;100.00
55070;BME280;40967;52.070;8.596;2023-02-18T07:53:38;100484.31;;;9.69;100.00
55070;BME280;40967;52.070;8.596;2023-02-18T07:56:04;100456.66;;;9.62;100.00
55070;BME280;40967;52.070;8.596;2023-02-18T07:58:34;100470.75;;;9.64;100.00
55070;BME280;40967;52.070;8.596;2023-02-18T08:01:06;100472.09;;;9.61;100.00
55070;BME280;40967;52.070;8.596;2023-02-18T08:03:33;100459.06;;;9.58;100.00
55070;BME280;40967;52.070;8.596;2023-02-18T08:05:59;100473.47;;;9.69;100.00
55070;BME280;40967;52.070;8.596;2023-02-18T08:08:27;100469.69;;;9.70;100.00
55070;BME280;40967;52.070;8.596;2023-02-18T08:10:54;100482.66;;;9.68;100.00
55070;BME280;40967;52.070;8.596;2023-02-18T08:13:20;100473.72;;;9.62;100.00
55070;BME280;40967;52.070;8.596;2023-02-18T08:15:45;100449.03;;;9.54;100.00
55070;BME280;40967;52.070;8.596;2023-02-18T08:18:19;100468.06;;;9.69;100.00
55070;BME280;40967;52.070;8.596;2023-02-18T08:20:46;100471.59;;;9.69;100.00
55070;BME280;40967;52.070;8.596;2023-02-18T08:23:12;100455.88;;;9.71;100.00
55070;BME280;40967;52.070;8.596;2023-02-18T08:25:38;100466.16;;;9.64;100.00
55070;BME280;40967;52.070;8.596;2023-02-18T08:28:04;100469.69;;;9.70;100.00
55070;BME280;40967;52.070;8.596;2023-02-18T08:30:30;100453.66;;;9.63;100.00
55070;BME280;40967;52.070;8.596;2023-02-18T08:32:55;100458.28;;;9.68;100.00
55070;BME280;40967;52.070;8.596;2023-02-18T08:35:21;100467.22;;;9.68;100.00
55070;BME280;40967;52.070;8.596;2023-02-18T08:37:46;100457.22;;;9.69;100.00
55070;BME280;40967;52.070;8.596;2023-02-18T08:40:12;100467.22;;;9.68;100.00
55070;BME280;40967;52.070;8.596;2023-02-18T08:42:38;100462.06;;;9.62;100.00
55070;BME280;40967;52.070;8.596;2023-02-18T08:45:05;100456.13;;;9.65;100.00
55070;BME280;40967;52.070;8.596;2023-02-18T08:47:30;100453.66;;;9.58;100.00
55070;BME280;40967;52.070;8.596;2023-02-18T08:49:56;100458.81;;;9.60;100.00
55070;BME280;40967;52.070;8.596;2023-02-18T08:52:22;100464.78;;;9.67;100.00
55070;BME280;40967;52.070;8.596;2023-02-18T08:54:48;100453.66;;;9.63;100.00
55070;BME280;40967;52.070;8.596;2023-02-18T08:57:20;100466.41;;;9.68;100.00
55070;BME280;40967;52.070;8.596;2023-02-18T08:59:46;100462.63;;;9.69;100.00
55070;BME280;40967;52.070;8.596;2023-02-18T09:02:12;100429.56;;;9.62;100.00
55070;BME280;40967;52.070;8.596;2023-02-18T09:04:38;100430.59;;;9.56;100.00
55070;BME280;40967;52.070;8.596;2023-02-18T09:07:03;100449.34;;;9.62;100.00
55070;BME280;40967;52.070;8.596;2023-02-18T09:09:29;100443.63;;;9.54;100.00
55070;BME280;40967;52.070;8.596;2023-02-18T09:11:55;100440.69;;;9.70;100.00
55070;BME280;40967;52.070;8.596;2023-02-18T09:14:20;100431.72;;;9.60;100.00
55070;BME280;40967;52.070;8.596;2023-02-18T09:16:46;100416.00;;;9.57;100.00
55070;BME280;40967;52.070;8.596;2023-02-18T09:19:11;100423.06;;;9.63;100.00
55070;BME280;40967;52.070;8.596;2023-02-18T09:21:38;100419.56;;;9.67;100.00
55070;BME280;40967;52.070;8.596;2023-02-18T09:24:06;100433.13;;;9.67;100.00
55070;BME280;40967;52.070;8.596;2023-02-18T09:26:33;100437.69;;;9.67;100.00
55070;BME280;40967;52.070;8.596;2023-02-18T09:28:58;100440.97;;;9.69;100.00
55070;BME280;40967;52.070;8.596;2023-02-18T09:31:25;100428.75;;;9.66;100.00
55070;BME280;40967;52.070;8.596;2023-02-18T09:33:58;100437.97;;;9.65;100.00
55070;BME280;40967;52.070;8.596;2023-02-18T09:36:25;100429.00;;;9.60;100.00
55070;BME280;40967;52.070;8.596;2023-02-18T09:38:51;100441.25;;;9.72;100.00
55070;BME280;40967;52.070;8.596;2023-02-18T09:44:47;100442.59;;;9.70;100.00
55070;BME280;40967;52.070;8.596;2023-02-18T09:47:34;100451.25;;;9.72;100.00
55070;BME280;40967;52.070;8.596;2023-02-18T09:50:07;100469.69;;;9.70;100.00
55070;BME280;40967;52.070;8.596;2023-02-18T09:52:36;100447.19;;;9.64;100.00
55070;BME280;40967;52.070;8.596;2023-02-18T09:55:34;100430.66;;;9.61;100.00
55070;BME280;40967;52.070;8.596;2023-02-18T09:58:17;100440.09;;;9.58;100.00
55070;BME280;40967;52.070;8.596;2023-02-18T10:00:48;100436.00;;;9.51;100.00
55070;BME280;40967;52.070;8.596;2023-02-18T10:03:22;100443.63;;;9.54;100.00
55070;BME280;40967;52.070;8.596;2023-02-18T10:06:09;100434.69;;;9.53;100.00
55070;BME280;40967;52.070;8.596;2023-02-18T10:08:46;100425.19;;;9.56;100.00
55070;BME280;40967;52.070;8.596;2023-02-18T10:11:19;100434.41;;;9.55;100.00
55070;BME280;40967;52.070;8.596;2023-02-18T10:13:46;100416.00;;;9.52;100.00
55070;BME280;40967;52.070;8.596;2023-02-18T10:16:17;100427.88;;;9.46;100.00
55070;BME280;40967;52.070;8.596;2023-02-18T10:18:45;100428.41;;;9.43;100.00
55070;BME280;40967;52.070;8.596;2023-02-18T10:21:23;100428.38;;;9.38;100.00
55070;BME280;40967;52.070;8.596;2023-02-18T10:24:01;100418.66;;;9.42;100.00
55070;BME280;40967;52.070;8.596;2023-02-18T10:26:33;100401.78;;;9.30;100.00
55070;BME280;40967;52.070;8.596;2023-02-18T10:28:59;100413.16;;;9.32;100.00
55070;BME280;40967;52.070;8.596;2023-02-18T10:31:29;100438.09;;;9.34;100.00
55070;BME280;40967;52.070;8.596;2023-02-18T10:33:58;100453.31;;;9.40;100.00
55070;BME280;40967;52.070;8.596;2023-02-18T10:36:44;100422.09;;;9.27;100.00
55070;BME280;40967;52.070;8.596;2023-02-18T10:45:10;100453.75;;;9.27;100.00
55070;BME280;40967;52.070;8.596;2023-02-18T10:48:13;100433.97;;;9.21;100.00
55070;BME280;40967;52.070;8.596;2023-02-18T10:50:42;100441.25;;;9.15;100.00
55070;BME280;40967;52.070;8.596;2023-02-18T10:53:47;100439.38;;;9.21;100.00
55070;BME280;40967;52.070;8.596;2023-02-18T10:56:06;100452.44;;;9.29;100.00
55070;BME280;40967;52.070;8.596;2023-02-18T10:58:34;100441.59;;;9.29;100.00
55070;BME280;40967;52.070;8.596;2023-02-18T11:01:03;100445.91;;;9.25;100.00
55070;BME280;40967;52.070;8.596;2023-02-18T11:06:30;100444.50;;;9.17;100.00
55070;BME280;40967;52.070;8.596;2023-02-18T11:08:59;100436.91;;;9.14;100.00
55070;BME280;40967;52.070;8.596;2023-02-18T11:11:41;100444.78;;;9.21;100.00
55070;BME280;40967;52.070;8.596;2023-02-18T11:14:08;100439.06;;;9.12;100.00
55070;BME280;40967;52.070;8.596;2023-02-18T11:16:43;100450.22;;;9.21;100.00
55070;BME280;40967;52.070;8.596;2023-02-18T11:19:37;100453.72;;;9.22;100.00
55070;BME280;40967;52.070;8.596;2023-02-18T11:22:24;100450.75;;;9.18;100.00
55070;BME280;40967;52.070;8.596;2023-02-18T11:25:25;100457.50;;;9.15;100.00
55070;BME280;40967;52.070;8.596;2023-02-18T11:28:05;100451.97;;;9.00;100.00
55070;BME280;40967;52.070;8.596;2023-02-18T11:30:38;100441.19;;;9.05;100.00
55070;BME280;40967;52.070;8.596;2023-02-18T11:33:19;100443.31;;;9.03;100.00
55070;BME280;40967;52.070;8.596;2023-02-18T11:35:53;100460.41;;;9.09;100.00
55070;BME280;40967;52.070;8.596;2023-02-18T11:38:34;100452.84;;;9.06;100.00
55070;BME280;40967;52.070;8.596;2023-02-18T11:41:06;100465.56;;;9.10;100.00
55070;BME280;40967;52.070;8.596;2023-02-18T11:43:33;100463.09;;;9.04;100.00
55070;BME280;40967;52.070;8.596;2023-02-18T11:46:16;100467.75;;;9.08;100.00
55070;BME280;40967;52.070;8.596;2023-02-18T11:48:42;100457.09;;;8.97;100.00
55070;BME280;40967;52.070;8.596;2023-02-18T11:51:25;100473.66;;;9.05;100.00
55070;BME280;40967;52.070;8.596;2023-02-18T11:54:03;100469.81;;;8.96;100.00
55070;BME280;40967;52.070;8.596;2023-02-18T11:56:32;100469.00;;;8.96;100.00
55070;BME280;40967;52.070;8.596;2023-02-18T11:58:59;100480.13;;;8.99;100.00
55070;BME280;40967;52.070;8.596;2023-02-18T12:01:37;100461.88;;;8.85;100.00
55070;BME280;40967;52.070;8.596;2023-02-18T12:04:24;100470.88;;;8.95;100.00
55070;BME280;40967;52.070;8.596;2023-02-18T12:09:34;100467.91;;;8.97;100.00
55070;BME280;40967;52.070;8.596;2023-02-18T12:12:05;100470.63;;;8.97;100.00
55070;BME280;40967;52.070;8.596;2023-02-18T12:14:31;100454.88;;;8.89;100.00
55070;BME280;40967;52.070;8.596;2023-02-18T12:31:46;100465.50;;;9.00;100.00
55070;BME280;40967;52.070;8.596;2023-02-18T12:43:03;100463.28;;;8.92;100.00
55070;BME280;40967;52.070;8.596;2023-02-18T12:45:37;100471.97;;;8.94;100.00
55070;BME280;40967;52.070;8.596;2023-02-18T12:48:24;100478.72;;;8.92;100.00
55070;BME280;40967;52.070;8.596;2023-02-18T12:56:40;100473.06;;;8.98;100.00
55070;BME280;40967;52.070;8.596;2023-02-18T13:05:59;100460.00;;;8.85;100.00
55070;BME280;40967;52.070;8.596;2023-02-18T13:11:07;100473.28;;;8.92;100.00
55070;BME280;40967;52.070;8.596;2023-02-18T13:14:02;100468.16;;;8.90;100.00
55070;BME280;40967;52.070;8.596;2023-02-18T13:16:30;100484.44;;;9.00;100.00
55070;BME280;40967;52.070;8.596;2023-02-18T13:21:38;100482.84;;;8.99;100.00
55070;BME280;40967;52.070;8.596;2023-02-18T13:24:13;100476.84;;;8.97;100.00
55070;BME280;40967;52.070;8.596;2023-02-18T13:26:43;100487.41;;;8.99;100.00
55070;BME280;40967;52.070;8.596;2023-02-18T13:29:34;100474.72;;;8.99;100.00
55070;BME280;40967;52.070;8.596;2023-02-18T13:41:10;100476.84;;;8.97;100.00
55070;BME280;40967;52.070;8.596;2023-02-18T13:43:35;100462.81;;;9.00;100.00
55070;BME280;40967;52.070;8.596;2023-02-18T13:51:45;100469.38;;;9.09;100.00
55070;BME280;40967;52.070;8.596;2023-02-18T13:57:02;100469.88;;;9.06;100.00
55070;BME280;40967;52.070;8.596;2023-02-18T13:59:58;100473.38;;;9.07;100.00
55070;BME280;40967;52.070;8.596;2023-02-18T14:02:34;100478.00;;;9.06;100.00
55070;BME280;40967;52.070;8.596;2023-02-18T14:25:51;100480.34;;;9.35;100.00
55070;BME280;40967;52.070;8.596;2023-02-18T14:33:46;100482.81;;;9.36;100.00
55070;BME280;40967;52.070;8.596;2023-02-18T14:43:57;100498.25;;;9.41;100.00
55070;BME280;40967;52.070;8.596;2023-02-18T14:46:38;100500.66;;;9.37;100.00
55070;BME280;40967;52.070;8.596;2023-02-18T14:52:11;100503.91;;;9.34;100.00
55070;BME280;40967;52.070;8.596;2023-02-18T14:54:41;100509.88;;;9.36;100.00
55070;BME280;40967;52.070;8.596;2023-02-18T14:57:16;100492.22;;;9.29;100.00
55070;BME280;40967;52.070;8.596;2023-02-18T14:59:43;100509.06;;;9.36;100.00
55070;BME280;40967;52.070;8.596;2023-02-18T15:02:23;100514.19;;;9.37;100.00
55070;BME280;40967;52.070;8.596;2023-02-18T15:04:52;100508.53;;;9.39;100.00
55070;BME280;40967;52.070;8.596;2023-02-18T15:07:19;100506.38;;;9.41;100.00
55070;BME280;40967;52.070;8.596;2023-02-18T15:09:52;100511.22;;;9.39;100.00
55070;BME280;40967;52.070;8.596;2023-02-18T15:12:20;100512.63;;;9.41;100.00
55070;BME280;40967;52.070;8.596;2023-02-18T15:14:49;100520.97;;;9.35;100.00
55070;BME280;40967;52.070;8.596;2023-02-18T15:17:21;100516.66;;;9.39;100.00
55070;BME280;40967;52.070;8.596;2023-02-18T15:19:52;100523.16;;;9.38;100.00
55070;BME280;40967;52.070;8.596;2023-02-18T15:22:20;100514.50;;;9.41;100.00
55070;BME280;40967;52.070;8.596;2023-02-18T15:24:47;100510.66;;;9.37;100.00
55070;BME280;40967;52.070;8.596;2023-02-18T15:27:17;100524.28;;;9.47;100.00
55070;BME280;40967;52.070;8.596;2023-02-18T15:29:43;100521.28;;;9.43;100.00
55070;BME280;40967;52.070;8.596;2023-02-18T15:32:23;100534.28;;;9.41;100.00
55070;BME280;40967;52.070;8.596;2023-02-18T15:34:55;100519.34;;;9.39;100.00
55070;BME280;40967;52.070;8.596;2023-02-18T15:37:22;100512.88;;;9.40;100.00
55070;BME280;40967;52.070;8.596;2023-02-18T15:39:48;100528.59;;;9.43;100.00
55070;BME280;40967;52.070;8.596;2023-02-18T15:47:41;100528.06;;;9.46;100.00